createdAt,value
2022-10-10T00:01:10.906Z,100.00
2022-10-10T00:03:39.961Z,100.00
2022-10-10T00:06:09.541Z,100.00
2022-10-10T00:08:41.698Z,100.00
2022-10-10T00:11:10.229Z,100.00
2022-10-10T00:13:43.305Z,100.00
2022-10-10T00:16:45.879Z,100.00
2022-10-10T00:19:13.758Z,100.00
2022-10-10T00:21:41.960Z,100.00
2022-10-10T00:24:10.432Z,100.00
2022-10-10T00:26:38.405Z,100.00
2022-10-10T00:29:07.619Z,100.00
2022-10-10T00:31:35.493Z,100.00
2022-10-10T00:34:03.442Z,100.00
2022-10-10T00:36:49.373Z,100.00
2022-10-10T00:39:17.201Z,100.00
2022-10-10T00:41:45.342Z,100.00
2022-10-10T00:44:21.766Z,100.00
2022-10-10T00:46:49.761Z,100.00
2022-10-10T00:49:20.527Z,100.00
2022-10-10T00:51:52.162Z,100.00
2022-10-10T00:54:40.700Z,100.00
2022-10-10T01:00:40.720Z,100.00
2022-10-10T01:03:14.225Z,100.00
2022-10-10T01:05:44.364Z,100.00
2022-10-10T01:08:14.571Z,100.00
2022-10-10T01:10:53.990Z,100.00
2022-10-10T01:13:29.354Z,100.00
2022-10-10T01:16:23.946Z,100.00
2022-10-10T01:19:01.274Z,100.00
2022-10-10T01:21:36.552Z,100.00
2022-10-10T01:24:29.998Z,100.00
2022-10-10T01:27:19.155Z,100.00
2022-10-10T01:29:53.225Z,100.00
2022-10-10T01:32:29.560Z,100.00
2022-10-10T01:35:07.965Z,100.00
2022-10-10T01:37:43.127Z,100.00
2022-10-10T01:40:18.902Z,100.00
2022-10-10T01:42:52.129Z,100.00
2022-10-10T01:45:50.270Z,100.00
2022-10-10T01:48:40.291Z,100.00
2022-10-10T01:51:42.063Z,100.00
2022-10-10T01:54:21.250Z,100.00
2022-10-10T01:57:01.123Z,100.00
2022-10-10T01:59:40.369Z,100.00
2022-10-10T02:02:19.080Z,100.00
2022-10-10T02:04:50.917Z,100.00
2022-10-10T02:07:25.047Z,100.00
2022-10-10T02:09:54.971Z,100.00
2022-10-10T02:12:24.320Z,100.00
2022-10-10T02:14:56.385Z,100.00
2022-10-10T02:17:27.805Z,100.00
2022-10-10T02:19:58.257Z,100.00
2022-10-10T02:22:29.210Z,100.00
2022-10-10T02:24:57.438Z,100.00
2022-10-10T02:27:33.476Z,100.00
2022-10-10T02:30:05.209Z,100.00
2022-10-10T02:32:40.337Z,100.00
2022-10-10T02:35:11.384Z,100.00
2022-10-10T02:37:42.535Z,100.00
2022-10-10T02:40:27.499Z,100.00
2022-10-10T02:42:58.299Z,100.00
2022-10-10T02:45:28.608Z,100.00
2022-10-10T02:48:04.390Z,100.00
2022-10-10T02:50:47.073Z,100.00
2022-10-10T02:53:15.089Z,100.00
2022-10-10T02:55:42.915Z,100.00
2022-10-10T02:58:10.779Z,100.00
2022-10-10T03:00:42.033Z,100.00
2022-10-10T03:03:40.538Z,100.00
2022-10-10T03:06:09.957Z,100.00
2022-10-10T03:08:38.918Z,100.00
2022-10-10T03:11:07.265Z,100.00
2022-10-10T03:13:42.658Z,100.00
2022-10-10T03:16:45.050Z,100.00
2022-10-10T03:19:13.011Z,100.00
2022-10-10T03:21:42.144Z,100.00
2022-10-10T03:24:44.485Z,100.00
2022-10-10T03:27:46.832Z,100.00
2022-10-10T03:30:41.842Z,100.00
2022-10-10T03:33:10.481Z,100.00
2022-10-10T03:35:41.970Z,100.00
2022-10-10T03:38:12.333Z,100.00
2022-10-10T03:40:41.833Z,100.00
2022-10-10T03:43:10.283Z,100.00
2022-10-10T03:45:52.781Z,100.00
2022-10-10T03:48:31.241Z,100.00
2022-10-10T03:51:40.937Z,100.00
2022-10-10T03:54:10.349Z,100.00
2022-10-10T03:56:42.641Z,100.00
2022-10-10T03:59:10.753Z,100.00
2022-10-10T04:01:49.305Z,100.00
2022-10-10T04:07:42.489Z,100.00
2022-10-10T04:10:11.970Z,100.00
2022-10-10T04:12:41.485Z,100.00
2022-10-10T04:15:10.384Z,100.00
2022-10-10T04:17:41.602Z,100.00
2022-10-10T04:20:10.081Z,100.00
2022-10-10T04:22:37.850Z,100.00
2022-10-10T04:28:24.236Z,100.00
2022-10-10T04:30:52.689Z,100.00
2022-10-10T04:33:20.398Z,100.00
2022-10-10T04:35:50.066Z,100.00
2022-10-10T04:39:12.920Z,100.00
2022-10-10T04:41:57.098Z,100.00
2022-10-10T04:44:28.423Z,100.00
2022-10-10T04:46:56.295Z,100.00
2022-10-10T04:49:24.134Z,100.00
2022-10-10T04:51:52.231Z,100.00
2022-10-10T04:54:19.997Z,100.00
2022-10-10T04:56:47.906Z,100.00
2022-10-10T04:59:15.770Z,100.00
2022-10-10T05:01:45.011Z,100.00
2022-10-10T05:04:13.096Z,100.00
2022-10-10T05:06:41.177Z,100.00
2022-10-10T05:09:09.106Z,100.00
2022-10-10T05:11:37.095Z,100.00
2022-10-10T05:14:05.268Z,100.00
2022-10-10T05:16:33.181Z,100.00
2022-10-10T05:19:02.369Z,100.00
2022-10-10T05:21:31.638Z,100.00
2022-10-10T05:23:59.353Z,100.00
2022-10-10T05:26:27.821Z,100.00
2022-10-10T05:28:55.696Z,100.00
2022-10-10T05:31:23.692Z,100.00
2022-10-10T05:33:51.438Z,100.00
2022-10-10T05:36:20.832Z,100.00
2022-10-10T05:38:48.529Z,100.00
2022-10-10T05:41:16.400Z,100.00
2022-10-10T05:43:44.614Z,100.00
2022-10-10T05:46:12.611Z,100.00
2022-10-10T05:48:40.817Z,100.00
2022-10-10T05:51:08.820Z,100.00
2022-10-10T05:53:37.876Z,100.00
2022-10-10T05:56:06.198Z,100.00
2022-10-10T05:58:34.102Z,100.00
2022-10-10T06:01:05.510Z,100.00
2022-10-10T06:03:33.830Z,100.00
2022-10-10T06:06:02.229Z,100.00
2022-10-10T06:08:31.153Z,100.00
2022-10-10T06:11:05.234Z,100.00
2022-10-10T06:13:33.569Z,100.00
2022-10-10T06:16:01.465Z,100.00
2022-10-10T06:18:29.230Z,100.00
2022-10-10T06:21:02.417Z,100.00
2022-10-10T06:23:30.159Z,100.00
2022-10-10T06:25:58.490Z,100.00
2022-10-10T06:28:27.682Z,100.00
2022-10-10T06:30:55.646Z,100.00
2022-10-10T06:33:23.840Z,100.00
2022-10-10T06:35:51.713Z,100.00
2022-10-10T06:38:19.436Z,100.00
2022-10-10T06:40:47.973Z,100.00
2022-10-10T06:43:17.293Z,100.00
2022-10-10T06:45:50.666Z,100.00
2022-10-10T06:48:18.477Z,100.00
2022-10-10T06:50:56.926Z,100.00
2022-10-10T06:53:24.735Z,100.00
2022-10-10T06:55:53.833Z,100.00
2022-10-10T06:58:21.981Z,100.00
2022-10-10T07:00:53.025Z,100.00
2022-10-10T07:03:21.712Z,100.00
2022-10-10T07:05:52.225Z,100.00
2022-10-10T07:08:20.699Z,100.00
2022-10-10T07:10:48.931Z,100.00
2022-10-10T07:13:17.193Z,100.00
2022-10-10T07:15:45.360Z,100.00
2022-10-10T07:18:15.121Z,100.00
2022-10-10T07:20:43.058Z,100.00
2022-10-10T07:23:11.173Z,100.00
2022-10-10T07:25:40.303Z,100.00
2022-10-10T07:28:09.030Z,100.00
2022-10-10T07:30:40.933Z,100.00
2022-10-10T07:33:08.715Z,100.00
2022-10-10T07:35:37.975Z,100.00
2022-10-10T07:38:06.456Z,100.00
2022-10-10T07:40:34.469Z,100.00
2022-10-10T07:43:02.160Z,100.00
2022-10-10T07:45:30.149Z,100.00
2022-10-10T07:47:58.106Z,100.00
2022-10-10T07:50:26.024Z,100.00
2022-10-10T07:52:55.242Z,100.00
2022-10-10T07:55:23.126Z,100.00
2022-10-10T07:57:53.414Z,100.00
2022-10-10T08:00:21.986Z,100.00
2022-10-10T08:02:50.803Z,100.00
2022-10-10T08:05:18.807Z,100.00
2022-10-10T08:07:47.146Z,100.00
2022-10-10T08:10:17.417Z,100.00
2022-10-10T08:12:45.385Z,100.00
2022-10-10T08:15:13.947Z,100.00
2022-10-10T08:17:41.831Z,100.00
2022-10-10T08:20:10.526Z,100.00
2022-10-10T08:22:38.381Z,100.00
2022-10-10T08:25:07.378Z,100.00
2022-10-10T08:27:36.527Z,100.00
2022-10-10T08:30:05.335Z,100.00
2022-10-10T08:32:33.119Z,100.00
2022-10-10T08:35:00.994Z,100.00
2022-10-10T08:37:32.777Z,100.00
2022-10-10T08:40:04.999Z,100.00
2022-10-10T08:42:45.586Z,100.00
2022-10-10T08:45:19.005Z,100.00
2022-10-10T08:47:52.182Z,100.00
2022-10-10T08:50:24.916Z,100.00
2022-10-10T08:52:58.004Z,100.00
2022-10-10T08:55:33.380Z,100.00
2022-10-10T08:58:08.569Z,99.33
2022-10-10T09:00:41.337Z,99.39
2022-10-10T09:03:20.862Z,94.86
2022-10-10T09:06:02.920Z,99.75
2022-10-10T09:08:41.822Z,97.29
2022-10-10T09:11:18.073Z,100.00
2022-10-10T09:13:59.262Z,100.00
2022-10-10T09:16:37.829Z,100.00
2022-10-10T09:19:17.501Z,98.77
2022-10-10T09:21:47.255Z,98.62
2022-10-10T09:24:20.918Z,95.80
2022-10-10T09:26:52.177Z,94.80
2022-10-10T09:29:30.010Z,95.17
2022-10-10T09:32:02.422Z,85.73
2022-10-10T09:34:35.167Z,84.63
2022-10-10T09:37:04.686Z,84.11
2022-10-10T09:39:39.602Z,86.68
2022-10-10T09:42:13.033Z,82.62
2022-10-10T09:44:43.510Z,80.98
2022-10-10T09:47:14.855Z,80.31
2022-10-10T09:49:42.949Z,81.11
2022-10-10T09:52:24.260Z,80.07
2022-10-10T09:54:56.290Z,75.50
2022-10-10T09:57:26.873Z,75.86
2022-10-10T09:59:56.125Z,72.57
2022-10-10T10:02:26.201Z,71.88
2022-10-10T10:04:54.733Z,72.54
2022-10-10T10:07:27.559Z,72.24
2022-10-10T10:09:59.164Z,73.86
2022-10-10T10:12:30.174Z,69.60
2022-10-10T10:15:04.333Z,69.76
2022-10-10T10:17:32.866Z,72.20
2022-10-10T10:20:00.545Z,66.79
2022-10-10T10:22:34.772Z,66.90
2022-10-10T10:25:32.533Z,68.60
2022-10-10T10:28:20.726Z,71.71
2022-10-10T10:30:53.414Z,68.85
2022-10-10T10:33:37.635Z,70.66
2022-10-10T10:36:14.243Z,68.76
2022-10-10T10:38:45.719Z,72.18
2022-10-10T10:41:24.313Z,69.15
2022-10-10T10:44:06.437Z,73.26
2022-10-10T10:46:45.276Z,68.15
2022-10-10T10:49:18.759Z,59.10
2022-10-10T10:52:08.533Z,58.39
2022-10-10T10:54:50.078Z,55.50
2022-10-10T10:57:37.108Z,54.74
2022-10-10T11:00:21.727Z,56.46
2022-10-10T11:03:34.954Z,56.79
2022-10-10T11:06:13.093Z,53.82
2022-10-10T11:08:53.153Z,51.12
2022-10-10T11:11:34.461Z,49.42
2022-10-10T11:14:10.601Z,44.02
2022-10-10T11:16:48.530Z,45.07
2022-10-10T11:19:29.081Z,45.99
2022-10-10T11:22:04.220Z,44.57
2022-10-10T11:24:42.294Z,44.69
2022-10-10T11:27:16.932Z,43.10
2022-10-10T11:30:01.162Z,43.20
2022-10-10T11:32:33.534Z,45.92
2022-10-10T11:35:13.336Z,45.25
2022-10-10T11:37:47.291Z,46.88
2022-10-10T11:40:33.700Z,43.59
2022-10-10T11:43:06.219Z,41.98
2022-10-10T11:45:39.002Z,42.60
2022-10-10T11:48:18.981Z,44.59
2022-10-10T11:50:54.005Z,43.23
2022-10-10T11:53:27.888Z,44.75
2022-10-10T11:56:00.070Z,41.55
2022-10-10T11:58:34.275Z,43.04
2022-10-10T12:01:06.994Z,43.92
2022-10-10T12:03:35.213Z,45.28
2022-10-10T12:06:13.379Z,46.32
2022-10-10T12:08:47.605Z,46.53
2022-10-10T12:11:20.674Z,45.04
2022-10-10T12:13:54.273Z,46.44
2022-10-10T12:16:29.567Z,45.41
2022-10-10T12:19:03.273Z,45.93
2022-10-10T12:21:50.929Z,46.56
2022-10-10T12:24:19.394Z,48.64
2022-10-10T12:27:27.470Z,50.13
2022-10-10T12:30:19.454Z,49.57
2022-10-10T12:32:50.117Z,51.15
2022-10-10T12:35:42.280Z,50.70
2022-10-10T12:38:21.550Z,51.68
2022-10-10T12:41:14.528Z,52.13
2022-10-10T12:44:13.201Z,54.25
2022-10-10T12:46:43.672Z,54.28
2022-10-10T12:49:22.509Z,53.80
2022-10-10T12:52:02.252Z,55.25
2022-10-10T12:54:33.123Z,55.88
2022-10-10T12:57:10.505Z,57.52
2022-10-10T12:59:39.700Z,55.37
2022-10-10T13:02:17.568Z,53.99
2022-10-10T13:04:47.569Z,54.91
2022-10-10T13:07:18.959Z,56.86
2022-10-10T13:09:49.378Z,57.08
2022-10-10T13:12:28.305Z,55.94
2022-10-10T13:14:57.423Z,56.00
2022-10-10T13:17:29.467Z,57.41
2022-10-10T13:19:58.790Z,59.57
2022-10-10T13:22:28.358Z,62.11
2022-10-10T13:24:56.689Z,62.48
2022-10-10T13:27:28.129Z,60.94
2022-10-10T13:29:56.960Z,61.45
2022-10-10T13:32:29.243Z,62.09
2022-10-10T13:35:00.242Z,61.30
2022-10-10T13:37:29.396Z,60.78
2022-10-10T13:39:57.873Z,63.11
2022-10-10T13:42:33.509Z,61.75
2022-10-10T13:45:03.238Z,63.03
2022-10-10T13:47:51.448Z,61.86
2022-10-10T13:50:26.669Z,61.28
2022-10-10T13:53:24.057Z,60.04
2022-10-10T13:55:58.804Z,60.27
2022-10-10T13:58:27.679Z,60.02
2022-10-10T14:00:57.305Z,62.38
2022-10-10T14:03:27.606Z,59.55
2022-10-10T14:05:55.600Z,61.25
2022-10-10T14:08:28.262Z,61.14
2022-10-10T14:10:58.298Z,60.38
2022-10-10T14:13:26.376Z,62.29
2022-10-10T14:15:54.481Z,62.22
2022-10-10T14:18:24.574Z,63.38
2022-10-10T14:20:55.567Z,64.98
2022-10-10T14:23:23.749Z,63.87
2022-10-10T14:25:51.613Z,64.32
2022-10-10T14:28:22.556Z,65.24
2022-10-10T14:30:50.569Z,64.45
2022-10-10T14:33:20.332Z,64.37
2022-10-10T14:35:51.665Z,61.34
2022-10-10T14:38:21.165Z,62.84
2022-10-10T14:40:50.696Z,64.39
2022-10-10T14:43:22.574Z,63.24
2022-10-10T14:45:51.722Z,63.01
2022-10-10T14:48:20.406Z,63.10
2022-10-10T14:50:49.465Z,61.44
2022-10-10T14:53:18.004Z,62.33
2022-10-10T14:55:47.657Z,62.24
2022-10-10T14:58:18.739Z,60.58
2022-10-10T15:00:47.252Z,62.83
2022-10-10T15:03:15.730Z,60.46
2022-10-10T15:05:43.714Z,61.39
2022-10-10T15:08:14.186Z,59.94
2022-10-10T15:10:42.425Z,61.46
2022-10-10T15:13:12.500Z,60.58
2022-10-10T15:15:41.009Z,60.38
2022-10-10T15:18:25.607Z,59.68
2022-10-10T15:20:57.773Z,59.92
2022-10-10T15:23:26.952Z,59.23
2022-10-10T15:25:54.763Z,59.96
2022-10-10T15:28:24.358Z,60.92
2022-10-10T15:30:52.694Z,62.22
2022-10-10T15:33:20.381Z,63.43
2022-10-10T15:36:09.101Z,64.69
2022-10-10T15:38:37.850Z,65.14
2022-10-10T15:41:08.918Z,66.20
2022-10-10T15:43:45.130Z,66.73
2022-10-10T15:46:13.589Z,67.52
2022-10-10T15:48:41.327Z,69.01
2022-10-10T15:51:09.644Z,69.51
2022-10-10T15:53:38.144Z,71.41
2022-10-10T15:56:10.105Z,72.89
2022-10-10T15:58:41.144Z,73.39
2022-10-10T16:01:13.568Z,74.41
2022-10-10T16:03:41.937Z,76.54
2022-10-10T16:06:10.305Z,77.77
2022-10-10T16:08:38.974Z,78.50
2022-10-10T16:11:08.189Z,80.09
2022-10-10T16:13:37.128Z,80.35
2022-10-10T16:16:08.818Z,81.94
2022-10-10T16:18:40.304Z,86.26
2022-10-10T16:21:10.521Z,89.71
2022-10-10T16:23:38.797Z,92.86
2022-10-10T16:26:08.831Z,96.96
2022-10-10T16:28:36.922Z,97.70
2022-10-10T16:31:09.010Z,97.80
2022-10-10T16:33:39.185Z,100.00
2022-10-10T16:36:09.977Z,100.00
2022-10-10T16:38:38.322Z,100.00
2022-10-10T16:41:19.663Z,100.00
2022-10-10T16:43:56.852Z,100.00
2022-10-10T16:46:27.726Z,100.00
2022-10-10T16:48:58.140Z,99.38
2022-10-10T16:51:28.391Z,99.10
2022-10-10T16:53:56.449Z,99.55
2022-10-10T16:56:24.348Z,99.83
2022-10-10T16:58:52.438Z,99.75
2022-10-10T17:01:22.293Z,100.00
2022-10-10T17:03:52.587Z,100.00
2022-10-10T17:06:23.289Z,100.00
2022-10-10T17:08:52.844Z,100.00
2022-10-10T17:11:22.826Z,100.00
2022-10-10T17:13:51.816Z,100.00
2022-10-10T17:16:59.713Z,100.00
2022-10-10T17:19:11.641Z,100.00
2022-10-10T17:21:39.721Z,100.00
2022-10-10T17:24:07.846Z,100.00
2022-10-10T17:26:35.870Z,100.00
2022-10-10T17:29:03.767Z,100.00
2022-10-10T17:31:31.511Z,100.00
2022-10-10T17:33:59.565Z,100.00
2022-10-10T17:36:29.474Z,100.00
2022-10-10T17:39:00.075Z,100.00
2022-10-10T17:41:29.627Z,100.00
2022-10-10T17:43:57.445Z,100.00
2022-10-10T17:46:36.327Z,100.00
2022-10-10T17:49:06.665Z,100.00
2022-10-10T17:51:37.030Z,100.00
2022-10-10T17:54:06.305Z,100.00
2022-10-10T17:56:35.221Z,100.00
2022-10-10T17:59:06.166Z,100.00
2022-10-10T18:01:35.060Z,100.00
2022-10-10T18:04:03.352Z,100.00
2022-10-10T18:06:31.881Z,100.00
2022-10-10T18:09:01.390Z,100.00
2022-10-10T18:11:31.731Z,100.00
2022-10-10T18:14:01.241Z,100.00
2022-10-10T18:16:32.397Z,100.00
2022-10-10T18:19:00.986Z,100.00
2022-10-10T18:21:29.123Z,100.00
2022-10-10T18:23:57.624Z,100.00
2022-10-10T18:26:30.062Z,100.00
2022-10-10T18:28:58.514Z,100.00
2022-10-10T18:31:28.302Z,100.00
2022-10-10T18:33:56.934Z,100.00
2022-10-10T18:36:27.073Z,100.00
2022-10-10T18:38:55.101Z,100.00
2022-10-10T18:41:25.154Z,100.00
2022-10-10T18:43:56.968Z,100.00
2022-10-10T18:46:25.649Z,100.00
2022-10-10T18:48:54.365Z,100.00
2022-10-10T18:51:25.133Z,100.00
2022-10-10T18:53:56.876Z,100.00
2022-10-10T18:56:25.209Z,100.00
2022-10-10T18:58:57.566Z,100.00
2022-10-10T19:01:28.138Z,100.00
2022-10-10T19:03:56.419Z,100.00
2022-10-10T19:06:25.644Z,100.00
2022-10-10T19:08:56.334Z,100.00
2022-10-10T19:11:27.450Z,100.00
2022-10-10T19:13:57.337Z,100.00
2022-10-10T19:16:25.218Z,100.00
2022-10-10T19:18:57.536Z,100.00
2022-10-10T19:21:27.468Z,100.00
2022-10-10T19:23:55.275Z,100.00
2022-10-10T19:26:23.455Z,100.00
2022-10-10T19:28:51.877Z,100.00
2022-10-10T19:31:22.502Z,100.00
2022-10-10T19:33:53.142Z,100.00
2022-10-10T19:36:21.366Z,100.00
2022-10-10T19:38:49.290Z,100.00
2022-10-10T19:41:17.709Z,100.00
2022-10-10T19:43:48.826Z,100.00
2022-10-10T19:46:18.314Z,100.00
2022-10-10T19:48:47.886Z,100.00
2022-10-10T19:51:16.956Z,100.00
2022-10-10T19:53:46.140Z,100.00
2022-10-10T19:56:16.454Z,100.00
2022-10-10T19:58:44.464Z,100.00
2022-10-10T20:01:14.839Z,100.00
2022-10-10T20:03:43.843Z,100.00
2022-10-10T20:06:13.235Z,100.00
2022-10-10T20:08:41.987Z,100.00
2022-10-10T20:11:10.459Z,100.00
2022-10-10T20:13:38.178Z,100.00
2022-10-10T20:16:09.272Z,100.00
2022-10-10T20:18:39.709Z,100.00
2022-10-10T20:21:15.560Z,100.00
2022-10-10T20:23:46.643Z,100.00
2022-10-10T20:26:16.360Z,100.00
2022-10-10T20:28:45.310Z,100.00
2022-10-10T20:31:19.868Z,100.00
2022-10-10T20:33:48.055Z,100.00
2022-10-10T20:36:16.842Z,100.00
2022-10-10T20:38:46.406Z,100.00
2022-10-10T20:41:14.294Z,100.00
2022-10-10T20:43:42.451Z,100.00
2022-10-10T20:46:12.868Z,100.00
2022-10-10T20:48:41.194Z,100.00
2022-10-10T20:51:12.292Z,100.00
2022-10-10T20:53:42.355Z,100.00
2022-10-10T20:56:13.466Z,100.00
2022-10-10T20:58:41.822Z,100.00
2022-10-10T21:01:11.549Z,100.00
2022-10-10T21:03:41.240Z,100.00
2022-10-10T21:06:11.318Z,100.00
2022-10-10T21:08:39.436Z,100.00
2022-10-10T21:11:08.789Z,100.00
2022-10-10T21:13:40.242Z,100.00
2022-10-10T21:16:10.742Z,100.00
2022-10-10T21:18:38.704Z,100.00
2022-10-10T21:21:08.328Z,100.00
2022-10-10T21:23:38.400Z,100.00
2022-10-10T21:26:07.186Z,100.00
2022-10-10T21:28:36.329Z,100.00
2022-10-10T21:31:06.326Z,100.00
2022-10-10T21:33:35.310Z,100.00
2022-10-10T21:36:03.371Z,100.00
2022-10-10T21:38:31.535Z,100.00
2022-10-10T21:41:06.544Z,100.00
2022-10-10T21:43:35.218Z,100.00
2022-10-10T21:46:05.878Z,100.00
2022-10-10T21:48:33.968Z,100.00
2022-10-10T21:51:02.828Z,100.00
2022-10-10T21:53:30.805Z,100.00
2022-10-10T21:55:58.907Z,100.00
2022-10-10T21:58:27.257Z,100.00
2022-10-10T22:00:55.055Z,100.00
2022-10-10T22:03:24.104Z,100.00
2022-10-10T22:05:52.074Z,100.00
2022-10-10T22:08:19.772Z,100.00
2022-10-10T22:10:48.873Z,100.00
2022-10-10T22:13:16.918Z,100.00
2022-10-10T22:15:44.745Z,100.00
2022-10-10T22:18:12.666Z,100.00
2022-10-10T22:20:41.979Z,100.00
2022-10-10T22:23:09.750Z,100.00
2022-10-10T22:25:37.565Z,100.00
2022-10-10T22:28:06.491Z,100.00
2022-10-10T22:30:34.313Z,100.00
2022-10-10T22:33:02.093Z,100.00
2022-10-10T22:35:30.424Z,100.00
2022-10-10T22:37:59.477Z,100.00
2022-10-10T22:40:27.467Z,100.00
2022-10-10T22:42:55.442Z,100.00
2022-10-10T22:45:23.763Z,100.00
2022-10-10T22:47:51.995Z,100.00
2022-10-10T22:50:20.130Z,100.00
2022-10-10T22:52:48.239Z,100.00
2022-10-10T22:55:18.933Z,100.00
2022-10-10T22:57:47.093Z,100.00
2022-10-10T23:00:16.516Z,100.00
2022-10-10T23:02:44.799Z,100.00
2022-10-10T23:05:13.250Z,100.00
2022-10-10T23:07:41.188Z,100.00
2022-10-10T23:10:10.078Z,100.00
2022-10-10T23:12:39.436Z,100.00
2022-10-10T23:15:08.222Z,100.00
2022-10-10T23:17:36.149Z,100.00
2022-10-10T23:20:04.586Z,100.00
2022-10-10T23:22:32.539Z,100.00
2022-10-10T23:25:00.463Z,100.00
2022-10-10T23:27:28.473Z,100.00
2022-10-10T23:29:57.829Z,100.00
2022-10-10T23:32:29.387Z,100.00
2022-10-10T23:34:57.873Z,100.00
2022-10-10T23:37:27.618Z,100.00
2022-10-10T23:39:55.381Z,100.00
2022-10-10T23:42:23.828Z,100.00
2022-10-10T23:44:51.591Z,100.00
2022-10-10T23:47:20.642Z,100.00
2022-10-10T23:49:48.645Z,100.00
2022-10-10T23:52:16.808Z,100.00
2022-10-10T23:54:44.686Z,100.00
2022-10-10T23:57:12.713Z,100.00
2022-10-10T23:59:40.430Z,100.00
